sensor_id;sensor_type;location;lat;lon;timestamp;P1;durP1;ratioP1;P2;durP2;ratioP2
50225;SDS011;36113;50.742;6.432;2022-07-01T00:01:35;3.95;;;3.65;;
50225;SDS011;36113;50.742;6.432;2022-07-01T00:04:00;4.47;;;3.08;;
50225;SDS011;36113;50.742;6.432;2022-07-01T00:06:26;3.60;;;3.30;;
50225;SDS011;36113;50.742;6.432;2022-07-01T00:08:51;4.33;;;3.20;;
50225;SDS011;36113;50.742;6.432;2022-07-01T00:11:16;2.92;;;2.72;;
50225;SDS011;36113;50.742;6.432;2022-07-01T00:13:42;2.33;;;2.20;;
50225;SDS011;36113;50.742;6.432;2022-07-01T00:16:07;2.90;;;2.70;;
50225;SDS011;36113;50.742;6.432;2022-07-01T00:18:33;2.50;;;2.30;;
50225;SDS011;36113;50.742;6.432;2022-07-01T00:20:58;2.22;;;2.03;;
50225;SDS011;36113;50.742;6.432;2022-07-01T00:23:25;3.30;;;2.08;;
50225;SDS011;36113;50.742;6.432;2022-07-01T00:25:51;2.53;;;2.28;;
50225;SDS011;36113;50.742;6.432;2022-07-01T00:28:16;2.17;;;2.00;;
50225;SDS011;36113;50.742;6.432;2022-07-01T00:30:42;2.50;;;2.30;;
50225;SDS011;36113;50.742;6.432;2022-07-01T00:33:07;1.92;;;1.83;;
50225;SDS011;36113;50.742;6.432;2022-07-01T00:35:32;1.98;;;1.88;;
50225;SDS011;36113;50.742;6.432;2022-07-01T00:37:57;3.28;;;2.00;;
50225;SDS011;36113;50.742;6.432;2022-07-01T00:40:23;2.42;;;1.70;;
50225;SDS011;36113;50.742;6.432;2022-07-01T00:42:49;1.63;;;1.53;;
50225;SDS011;36113;50.742;6.432;2022-07-01T00:45:15;2.47;;;1.75;;
50225;SDS011;36113;50.742;6.432;2022-07-01T00:47:41;3.38;;;2.00;;
50225;SDS011;36113;50.742;6.432;2022-07-01T00:52:33;1.70;;;1.60;;
50225;SDS011;36113;50.742;6.432;2022-07-01T00:55:01;1.60;;;1.60;;
50225;SDS011;36113;50.742;6.432;2022-07-01T00:57:32;2.28;;;2.17;;
50225;SDS011;36113;50.742;6.432;2022-07-01T00:59:58;2.08;;;1.90;;
50225;SDS011;36113;50.742;6.432;2022-07-01T01:02:25;1.88;;;1.67;;
50225;SDS011;36113;50.742;6.432;2022-07-01T01:04:51;2.28;;;1.73;;
50225;SDS011;36113;50.742;6.432;2022-07-01T01:07:16;1.63;;;1.53;;
50225;SDS011;36113;50.742;6.432;2022-07-01T01:09:41;1.90;;;1.70;;
50225;SDS011;36113;50.742;6.432;2022-07-01T01:12:07;1.60;;;1.58;;
50225;SDS011;36113;50.742;6.432;2022-07-01T01:14:49;3.28;;;2.00;;
50225;SDS011;36113;50.742;6.432;2022-07-01T01:17:15;2.03;;;1.92;;
50225;SDS011;36113;50.742;6.432;2022-07-01T01:19:41;1.75;;;1.65;;
50225;SDS011;36113;50.742;6.432;2022-07-01T01:22:08;3.20;;;1.73;;
50225;SDS011;36113;50.742;6.432;2022-07-01T01:24:35;5.25;;;2.20;;
50225;SDS011;36113;50.742;6.432;2022-07-01T01:27:02;2.10;;;2.00;;
50225;SDS011;36113;50.742;6.432;2022-07-01T01:29:29;3.53;;;1.80;;
50225;SDS011;36113;50.742;6.432;2022-07-01T01:31:54;1.73;;;1.63;;
50225;SDS011;36113;50.742;6.432;2022-07-01T01:34:19;2.35;;;2.22;;
50225;SDS011;36113;50.742;6.432;2022-07-01T01:36:45;2.97;;;1.90;;
50225;SDS011;36113;50.742;6.432;2022-07-01T01:39:11;1.60;;;1.60;;
50225;SDS011;36113;50.742;6.432;2022-07-01T01:41:39;4.63;;;1.95;;
50225;SDS011;36113;50.742;6.432;2022-07-01T01:44:05;1.92;;;1.83;;
50225;SDS011;36113;50.742;6.432;2022-07-01T01:46:30;2.10;;;2.00;;
50225;SDS011;36113;50.742;6.432;2022-07-01T01:48:56;2.10;;;2.00;;
50225;SDS011;36113;50.742;6.432;2022-07-01T01:51:22;3.28;;;2.00;;
50225;SDS011;36113;50.742;6.432;2022-07-01T01:53:47;6.85;;;2.25;;
50225;SDS011;36113;50.742;6.432;2022-07-01T01:56:13;2.97;;;2.15;;
50225;SDS011;36113;50.742;6.432;2022-07-01T01:58:38;2.28;;;2.17;;
50225;SDS011;36113;50.742;6.432;2022-07-01T02:01:08;2.10;;;2.00;;
50225;SDS011;36113;50.742;6.432;2022-07-01T02:03:35;3.05;;;2.53;;
50225;SDS011;36113;50.742;6.432;2022-07-01T02:06:00;2.25;;;2.15;;
50225;SDS011;36113;50.742;6.432;2022-07-01T02:08:26;2.80;;;2.63;;
50225;SDS011;36113;50.742;6.432;2022-07-01T02:10:51;2.38;;;1.92;;
50225;SDS011;36113;50.742;6.432;2022-07-01T02:13:17;2.72;;;2.50;;
50225;SDS011;36113;50.742;6.432;2022-07-01T02:15:42;4.55;;;2.25;;
50225;SDS011;36113;50.742;6.432;2022-07-01T02:18:07;2.50;;;2.00;;
50225;SDS011;36113;50.742;6.432;2022-07-01T02:20:33;3.08;;;2.05;;
50225;SDS011;36113;50.742;6.432;2022-07-01T02:22:59;2.40;;;2.20;;
50225;SDS011;36113;50.742;6.432;2022-07-01T02:25:24;4.57;;;2.10;;
50225;SDS011;36113;50.742;6.432;2022-07-01T02:27:49;2.55;;;1.95;;
50225;SDS011;36113;50.742;6.432;2022-07-01T02:30:15;3.97;;;2.17;;
50225;SDS011;36113;50.742;6.432;2022-07-01T02:32:40;2.58;;;2.03;;
50225;SDS011;36113;50.742;6.432;2022-07-01T02:35:06;2.90;;;2.05;;
50225;SDS011;36113;50.742;6.432;2022-07-01T02:37:31;2.47;;;2.00;;
50225;SDS011;36113;50.742;6.432;2022-07-01T02:39:58;2.70;;;1.98;;
50225;SDS011;36113;50.742;6.432;2022-07-01T02:42:23;3.97;;;1.90;;
50225;SDS011;36113;50.742;6.432;2022-07-01T02:44:51;2.08;;;1.88;;
50225;SDS011;36113;50.742;6.432;2022-07-01T02:47:16;2.65;;;2.22;;
50225;SDS011;36113;50.742;6.432;2022-07-01T02:49:42;4.28;;;2.10;;
50225;SDS011;36113;50.742;6.432;2022-07-01T02:52:08;2.28;;;2.08;;
50225;SDS011;36113;50.742;6.432;2022-07-01T02:54:33;1.88;;;1.77;;
50225;SDS011;36113;50.742;6.432;2022-07-01T02:56:59;3.50;;;2.03;;
50225;SDS011;36113;50.742;6.432;2022-07-01T02:59:24;2.63;;;1.98;;
50225;SDS011;36113;50.742;6.432;2022-07-01T03:01:49;2.22;;;2.03;;
50225;SDS011;36113;50.742;6.432;2022-07-01T03:04:15;2.67;;;2.15;;
50225;SDS011;36113;50.742;6.432;2022-07-01T03:06:40;5.68;;;2.42;;
50225;SDS011;36113;50.742;6.432;2022-07-01T03:09:06;3.75;;;2.35;;
50225;SDS011;36113;50.742;6.432;2022-07-01T03:11:31;3.83;;;2.65;;
50225;SDS011;36113;50.742;6.432;2022-07-01T03:13:57;4.80;;;2.70;;
50225;SDS011;36113;50.742;6.432;2022-07-01T03:16:22;3.33;;;2.38;;
50225;SDS011;36113;50.742;6.432;2022-07-01T03:18:47;2.33;;;2.10;;
50225;SDS011;36113;50.742;6.432;2022-07-01T03:21:13;4.55;;;2.90;;
50225;SDS011;36113;50.742;6.432;2022-07-01T03:23:38;3.58;;;2.65;;
50225;SDS011;36113;50.742;6.432;2022-07-01T03:26:04;7.45;;;3.03;;
50225;SDS011;36113;50.742;6.432;2022-07-01T03:28:29;2.85;;;2.53;;
50225;SDS011;36113;50.742;6.432;2022-07-01T03:30:56;3.50;;;2.67;;
50225;SDS011;36113;50.742;6.432;2022-07-01T03:33:22;4.32;;;2.55;;
50225;SDS011;36113;50.742;6.432;2022-07-01T03:35:47;4.68;;;2.42;;
50225;SDS011;36113;50.742;6.432;2022-07-01T03:38:13;5.75;;;2.83;;
50225;SDS011;36113;50.742;6.432;2022-07-01T03:40:38;3.20;;;2.45;;
50225;SDS011;36113;50.742;6.432;2022-07-01T03:43:04;3.72;;;2.65;;
50225;SDS011;36113;50.742;6.432;2022-07-01T03:45:30;3.43;;;2.90;;
50225;SDS011;36113;50.742;6.432;2022-07-01T03:47:56;3.58;;;2.63;;
50225;SDS011;36113;50.742;6.432;2022-07-01T03:50:22;6.18;;;3.17;;
50225;SDS011;36113;50.742;6.432;2022-07-01T03:55:34;5.43;;;3.20;;
50225;SDS011;36113;50.742;6.432;2022-07-01T03:57:59;3.08;;;2.40;;
50225;SDS011;36113;50.742;6.432;2022-07-01T04:00:25;3.00;;;2.70;;
50225;SDS011;36113;50.742;6.432;2022-07-01T04:02:50;4.13;;;2.78;;
50225;SDS011;36113;50.742;6.432;2022-07-01T04:05:15;4.22;;;2.30;;
50225;SDS011;36113;50.742;6.432;2022-07-01T04:07:41;2.88;;;2.47;;
50225;SDS011;36113;50.742;6.432;2022-07-01T04:10:06;2.35;;;2.00;;
50225;SDS011;36113;50.742;6.432;2022-07-01T04:12:32;2.72;;;2.40;;
50225;SDS011;36113;50.742;6.432;2022-07-01T04:14:57;4.03;;;2.60;;
50225;SDS011;36113;50.742;6.432;2022-07-01T04:17:23;4.68;;;2.30;;
50225;SDS011;36113;50.742;6.432;2022-07-01T04:19:48;2.97;;;2.67;;
50225;SDS011;36113;50.742;6.432;2022-07-01T04:22:14;6.40;;;2.67;;
50225;SDS011;36113;50.742;6.432;2022-07-01T04:24:58;2.88;;;1.92;;
50225;SDS011;36113;50.742;6.432;2022-07-01T04:27:23;2.50;;;2.37;;
50225;SDS011;36113;50.742;6.432;2022-07-01T04:29:49;2.35;;;2.15;;
50225;SDS011;36113;50.742;6.432;2022-07-01T04:32:14;3.10;;;2.50;;
50225;SDS011;36113;50.742;6.432;2022-07-01T04:34:39;3.03;;;2.83;;
50225;SDS011;36113;50.742;6.432;2022-07-01T04:37:05;2.47;;;2.28;;
50225;SDS011;36113;50.742;6.432;2022-07-01T04:39:30;5.38;;;2.50;;
50225;SDS011;36113;50.742;6.432;2022-07-01T04:41:55;5.47;;;2.75;;
50225;SDS011;36113;50.742;6.432;2022-07-01T04:44:36;3.42;;;2.25;;
50225;SDS011;36113;50.742;6.432;2022-07-01T04:47:02;3.67;;;2.55;;
50225;SDS011;36113;50.742;6.432;2022-07-01T04:49:29;4.57;;;2.58;;
50225;SDS011;36113;50.742;6.432;2022-07-01T04:51:55;2.70;;;2.50;;
50225;SDS011;36113;50.742;6.432;2022-07-01T04:54:21;5.15;;;2.95;;
50225;SDS011;36113;50.742;6.432;2022-07-01T04:56:47;2.45;;;2.22;;
50225;SDS011;36113;50.742;6.432;2022-07-01T04:59:13;2.40;;;2.10;;
50225;SDS011;36113;50.742;6.432;2022-07-01T05:01:40;8.25;;;2.60;;
50225;SDS011;36113;50.742;6.432;2022-07-01T05:04:09;3.33;;;2.70;;
50225;SDS011;36113;50.742;6.432;2022-07-01T05:06:35;3.45;;;2.30;;
50225;SDS011;36113;50.742;6.432;2022-07-01T05:09:01;2.57;;;2.00;;
50225;SDS011;36113;50.742;6.432;2022-07-01T05:11:26;3.58;;;2.15;;
50225;SDS011;36113;50.742;6.432;2022-07-01T05:13:52;3.45;;;2.00;;
50225;SDS011;36113;50.742;6.432;2022-07-01T05:16:18;4.88;;;2.53;;
50225;SDS011;36113;50.742;6.432;2022-07-01T05:18:43;3.90;;;1.88;;
50225;SDS011;36113;50.742;6.432;2022-07-01T05:21:27;2.95;;;2.00;;
50225;SDS011;36113;50.742;6.432;2022-07-01T05:24:11;5.18;;;2.15;;
50225;SDS011;36113;50.742;6.432;2022-07-01T05:26:36;2.45;;;2.25;;
50225;SDS011;36113;50.742;6.432;2022-07-01T05:29:02;1.93;;;1.80;;
50225;SDS011;36113;50.742;6.432;2022-07-01T05:31:27;3.65;;;1.83;;
50225;SDS011;36113;50.742;6.432;2022-07-01T05:33:53;1.85;;;1.73;;
50225;SDS011;36113;50.742;6.432;2022-07-01T05:36:19;4.18;;;2.00;;
50225;SDS011;36113;50.742;6.432;2022-07-01T05:38:45;2.20;;;2.00;;
50225;SDS011;36113;50.742;6.432;2022-07-01T05:41:11;1.90;;;1.80;;
50225;SDS011;36113;50.742;6.432;2022-07-01T05:43:37;3.60;;;2.13;;
50225;SDS011;36113;50.742;6.432;2022-07-01T05:46:03;2.00;;;1.90;;
50225;SDS011;36113;50.742;6.432;2022-07-01T05:48:28;5.17;;;1.70;;
50225;SDS011;36113;50.742;6.432;2022-07-01T05:50:53;2.72;;;1.55;;
50225;SDS011;36113;50.742;6.432;2022-07-01T05:53:19;3.25;;;1.35;;
50225;SDS011;36113;50.742;6.432;2022-07-01T05:55:44;2.97;;;1.70;;
50225;SDS011;36113;50.742;6.432;2022-07-01T05:58:10;2.15;;;1.95;;
50225;SDS011;36113;50.742;6.432;2022-07-01T06:00:36;4.72;;;1.50;;
50225;SDS011;36113;50.742;6.432;2022-07-01T06:03:03;2.42;;;1.42;;
50225;SDS011;36113;50.742;6.432;2022-07-01T06:05:28;2.55;;;1.60;;
50225;SDS011;36113;50.742;6.432;2022-07-01T06:07:55;3.67;;;1.38;;
50225;SDS011;36113;50.742;6.432;2022-07-01T06:10:20;3.53;;;1.20;;
50225;SDS011;36113;50.742;6.432;2022-07-01T06:12:45;1.40;;;1.38;;
50225;SDS011;36113;50.742;6.432;2022-07-01T06:15:11;2.45;;;1.38;;
50225;SDS011;36113;50.742;6.432;2022-07-01T06:17:38;3.50;;;1.40;;
50225;SDS011;36113;50.742;6.432;2022-07-01T06:20:06;1.10;;;1.08;;
50225;SDS011;36113;50.742;6.432;2022-07-01T06:22:32;5.22;;;1.38;;
50225;SDS011;36113;50.742;6.432;2022-07-01T06:24:58;2.30;;;1.30;;
50225;SDS011;36113;50.742;6.432;2022-07-01T06:27:24;1.00;;;1.00;;
50225;SDS011;36113;50.742;6.432;2022-07-01T06:29:50;1.58;;;1.48;;
50225;SDS011;36113;50.742;6.432;2022-07-01T06:32:16;1.20;;;1.00;;
50225;SDS011;36113;50.742;6.432;2022-07-01T06:34:41;1.40;;;1.30;;
50225;SDS011;36113;50.742;6.432;2022-07-01T06:37:07;1.47;;;1.37;;
50225;SDS011;36113;50.742;6.432;2022-07-01T06:39:32;3.00;;;1.20;;
50225;SDS011;36113;50.742;6.432;2022-07-01T06:41:58;1.70;;;1.30;;
50225;SDS011;36113;50.742;6.432;2022-07-01T06:44:23;1.95;;;1.63;;
50225;SDS011;36113;50.742;6.432;2022-07-01T06:46:49;3.10;;;1.57;;
50225;SDS011;36113;50.742;6.432;2022-07-01T06:49:14;2.47;;;1.58;;
50225;SDS011;36113;50.742;6.432;2022-07-01T06:51:40;2.30;;;1.57;;
50225;SDS011;36113;50.742;6.432;2022-07-01T06:54:06;1.38;;;1.27;;
50225;SDS011;36113;50.742;6.432;2022-07-01T06:56:31;2.00;;;1.90;;
50225;SDS011;36113;50.742;6.432;2022-07-01T06:58:57;3.30;;;1.65;;
50225;SDS011;36113;50.742;6.432;2022-07-01T07:01:22;1.50;;;1.40;;
50225;SDS011;36113;50.742;6.432;2022-07-01T07:03:48;1.27;;;1.27;;
50225;SDS011;36113;50.742;6.432;2022-07-01T07:06:13;2.30;;;1.70;;
50225;SDS011;36113;50.742;6.432;2022-07-01T07:08:39;2.67;;;1.60;;
50225;SDS011;36113;50.742;6.432;2022-07-01T07:11:04;2.20;;;2.00;;
50225;SDS011;36113;50.742;6.432;2022-07-01T07:13:30;1.60;;;1.47;;
50225;SDS011;36113;50.742;6.432;2022-07-01T07:15:55;1.80;;;1.47;;
50225;SDS011;36113;50.742;6.432;2022-07-01T07:18:21;1.30;;;1.30;;
50225;SDS011;36113;50.742;6.432;2022-07-01T07:20:46;2.53;;;1.40;;
50225;SDS011;36113;50.742;6.432;2022-07-01T07:23:14;6.35;;;1.50;;
50225;SDS011;36113;50.742;6.432;2022-07-01T07:25:40;2.07;;;1.67;;
50225;SDS011;36113;50.742;6.432;2022-07-01T07:28:06;2.63;;;1.30;;
50225;SDS011;36113;50.742;6.432;2022-07-01T07:30:31;7.53;;;1.50;;
50225;SDS011;36113;50.742;6.432;2022-07-01T07:32:56;3.13;;;1.20;;
50225;SDS011;36113;50.742;6.432;2022-07-01T07:35:22;2.23;;;1.67;;
50225;SDS011;36113;50.742;6.432;2022-07-01T07:37:47;1.40;;;1.30;;
50225;SDS011;36113;50.742;6.432;2022-07-01T07:40:13;1.73;;;1.40;;
50225;SDS011;36113;50.742;6.432;2022-07-01T07:42:43;1.67;;;1.58;;
50225;SDS011;36113;50.742;6.432;2022-07-01T07:45:09;2.08;;;1.35;;
50225;SDS011;36113;50.742;6.432;2022-07-01T07:47:36;1.42;;;1.30;;
50225;SDS011;36113;50.742;6.432;2022-07-01T07:50:03;1.00;;;1.00;;
50225;SDS011;36113;50.742;6.432;2022-07-01T07:52:29;2.05;;;1.58;;
50225;SDS011;36113;50.742;6.432;2022-07-01T07:54:54;2.13;;;1.27;;
50225;SDS011;36113;50.742;6.432;2022-07-01T07:57:20;2.40;;;1.57;;
50225;SDS011;36113;50.742;6.432;2022-07-01T07:59:45;1.47;;;1.10;;
50225;SDS011;36113;50.742;6.432;2022-07-01T08:02:11;1.97;;;1.23;;
50225;SDS011;36113;50.742;6.432;2022-07-01T08:04:36;1.43;;;0.97;;
50225;SDS011;36113;50.742;6.432;2022-07-01T08:07:02;1.00;;;1.00;;
50225;SDS011;36113;50.742;6.432;2022-07-01T08:09:27;2.90;;;1.10;;
50225;SDS011;36113;50.742;6.432;2022-07-01T08:11:53;2.00;;;1.07;;
50225;SDS011;36113;50.742;6.432;2022-07-01T08:14:18;4.43;;;0.90;;
50225;SDS011;36113;50.742;6.432;2022-07-01T08:16:43;1.63;;;1.00;;
50225;SDS011;36113;50.742;6.432;2022-07-01T08:19:09;1.83;;;0.70;;
50225;SDS011;36113;50.742;6.432;2022-07-01T08:21:34;1.90;;;0.80;;
50225;SDS011;36113;50.742;6.432;2022-07-01T08:24:00;1.07;;;0.97;;
50225;SDS011;36113;50.742;6.432;2022-07-01T08:26:25;1.80;;;1.17;;
50225;SDS011;36113;50.742;6.432;2022-07-01T08:28:50;4.73;;;1.20;;
50225;SDS011;36113;50.742;6.432;2022-07-01T08:31:16;1.30;;;0.80;;
50225;SDS011;36113;50.742;6.432;2022-07-01T08:33:41;1.33;;;0.87;;
50225;SDS011;36113;50.742;6.432;2022-07-01T08:36:07;0.90;;;0.90;;
50225;SDS011;36113;50.742;6.432;2022-07-01T08:38:34;0.80;;;0.80;;
50225;SDS011;36113;50.742;6.432;2022-07-01T08:41:00;1.38;;;1.00;;
50225;SDS011;36113;50.742;6.432;2022-07-01T08:43:26;3.03;;;1.10;;
50225;SDS011;36113;50.742;6.432;2022-07-01T08:45:53;1.23;;;0.95;;
50225;SDS011;36113;50.742;6.432;2022-07-01T08:48:18;1.17;;;0.90;;
50225;SDS011;36113;50.742;6.432;2022-07-01T08:50:44;2.77;;;0.90;;
50225;SDS011;36113;50.742;6.432;2022-07-01T08:53:10;0.70;;;0.70;;
50225;SDS011;36113;50.742;6.432;2022-07-01T08:55:37;1.27;;;1.08;;
50225;SDS011;36113;50.742;6.432;2022-07-01T08:58:23;4.22;;;1.10;;
50225;SDS011;36113;50.742;6.432;2022-07-01T09:00:49;1.10;;;1.00;;
50225;SDS011;36113;50.742;6.432;2022-07-01T09:03:15;3.27;;;0.73;;
50225;SDS011;36113;50.742;6.432;2022-07-01T09:05:49;1.17;;;0.90;;
50225;SDS011;36113;50.742;6.432;2022-07-01T09:08:17;0.82;;;0.73;;
50225;SDS011;36113;50.742;6.432;2022-07-01T09:10:44;2.20;;;1.23;;
50225;SDS011;36113;50.742;6.432;2022-07-01T09:13:11;0.98;;;0.98;;
50225;SDS011;36113;50.742;6.432;2022-07-01T09:15:38;1.15;;;1.05;;
50225;SDS011;36113;50.742;6.432;2022-07-01T09:18:06;1.50;;;1.23;;
50225;SDS011;36113;50.742;6.432;2022-07-01T09:20:37;1.50;;;0.85;;
50225;SDS011;36113;50.742;6.432;2022-07-01T09:23:05;2.78;;;1.05;;
50225;SDS011;36113;50.742;6.432;2022-07-01T09:25:50;1.35;;;0.80;;
50225;SDS011;36113;50.742;6.432;2022-07-01T09:28:20;0.73;;;0.73;;
50225;SDS011;36113;50.742;6.432;2022-07-01T09:30:50;1.67;;;0.70;;
50225;SDS011;36113;50.742;6.432;2022-07-01T09:33:22;4.78;;;0.82;;
50225;SDS011;36113;50.742;6.432;2022-07-01T09:35:52;4.10;;;1.00;;
50225;SDS011;36113;50.742;6.432;2022-07-01T09:38:22;2.63;;;0.77;;
50225;SDS011;36113;50.742;6.432;2022-07-01T09:41:00;1.13;;;0.82;;
50225;SDS011;36113;50.742;6.432;2022-07-01T09:43:30;1.27;;;0.90;;
50225;SDS011;36113;50.742;6.432;2022-07-01T09:45:58;1.63;;;1.52;;
50225;SDS011;36113;50.742;6.432;2022-07-01T09:51:00;1.42;;;0.90;;
50225;SDS011;36113;50.742;6.432;2022-07-01T09:53:27;3.45;;;1.00;;
50225;SDS011;36113;50.742;6.432;2022-07-01T09:55:52;2.23;;;1.00;;
50225;SDS011;36113;50.742;6.432;2022-07-01T09:58:18;1.33;;;1.03;;
50225;SDS011;36113;50.742;6.432;2022-07-01T10:00:44;4.13;;;1.23;;
50225;SDS011;36113;50.742;6.432;2022-07-01T10:03:10;0.80;;;0.80;;
50225;SDS011;36113;50.742;6.432;2022-07-01T10:05:45;1.25;;;0.95;;
50225;SDS011;36113;50.742;6.432;2022-07-01T10:08:18;1.23;;;0.80;;
50225;SDS011;36113;50.742;6.432;2022-07-01T10:14:01;2.75;;;0.80;;
50225;SDS011;36113;50.742;6.432;2022-07-01T10:16:28;0.60;;;0.60;;
50225;SDS011;36113;50.742;6.432;2022-07-01T10:18:54;1.67;;;0.70;;
50225;SDS011;36113;50.742;6.432;2022-07-01T10:21:26;8.00;;;1.00;;
50225;SDS011;36113;50.742;6.432;2022-07-01T10:23:56;2.90;;;0.95;;
50225;SDS011;36113;50.742;6.432;2022-07-01T10:26:36;2.30;;;0.90;;
50225;SDS011;36113;50.742;6.432;2022-07-01T10:29:02;1.87;;;1.03;;
50225;SDS011;36113;50.742;6.432;2022-07-01T10:31:34;1.83;;;0.90;;
50225;SDS011;36113;50.742;6.432;2022-07-01T10:34:02;2.10;;;0.73;;
50225;SDS011;36113;50.742;6.432;2022-07-01T10:36:29;3.35;;;0.95;;
50225;SDS011;36113;50.742;6.432;2022-07-01T10:41:54;0.80;;;0.70;;
50225;SDS011;36113;50.742;6.432;2022-07-01T10:44:22;0.68;;;0.68;;
50225;SDS011;36113;50.742;6.432;2022-07-01T10:52:05;2.35;;;0.98;;
50225;SDS011;36113;50.742;6.432;2022-07-01T11:02:19;3.13;;;0.93;;
50225;SDS011;36113;50.742;6.432;2022-07-01T11:04:44;0.90;;;0.63;;
50225;SDS011;36113;50.742;6.432;2022-07-01T11:07:10;2.83;;;0.70;;
50225;SDS011;36113;50.742;6.432;2022-07-01T11:09:36;2.10;;;0.60;;
50225;SDS011;36113;50.742;6.432;2022-07-01T11:12:01;1.23;;;0.90;;
50225;SDS011;36113;50.742;6.432;2022-07-01T11:16:53;2.17;;;1.13;;
50225;SDS011;36113;50.742;6.432;2022-07-01T11:21:48;2.70;;;0.90;;
50225;SDS011;36113;50.742;6.432;2022-07-01T11:24:16;1.15;;;0.63;;
50225;SDS011;36113;50.742;6.432;2022-07-01T11:26:42;0.77;;;0.70;;
50225;SDS011;36113;50.742;6.432;2022-07-01T11:29:10;0.50;;;0.50;;
50225;SDS011;36113;50.742;6.432;2022-07-01T11:31:36;3.50;;;0.70;;
50225;SDS011;36113;50.742;6.432;2022-07-01T11:34:02;0.50;;;0.50;;
50225;SDS011;36113;50.742;6.432;2022-07-01T11:36:28;0.70;;;0.70;;
50225;SDS011;36113;50.742;6.432;2022-07-01T11:39:13;1.92;;;0.70;;
50225;SDS011;36113;50.742;6.432;2022-07-01T11:41:51;0.63;;;0.57;;
50225;SDS011;36113;50.742;6.432;2022-07-01T11:44:33;2.78;;;0.77;;
50225;SDS011;36113;50.742;6.432;2022-07-01T11:47:04;1.50;;;0.98;;
50225;SDS011;36113;50.742;6.432;2022-07-01T11:49:32;1.38;;;0.60;;
50225;SDS011;36113;50.742;6.432;2022-07-01T11:51:59;2.67;;;0.80;;
50225;SDS011;36113;50.742;6.432;2022-07-01T11:54:26;0.50;;;0.50;;
50225;SDS011;36113;50.742;6.432;2022-07-01T11:56:52;0.50;;;0.50;;
50225;SDS011;36113;50.742;6.432;2022-07-01T11:59:18;4.80;;;0.70;;
50225;SDS011;36113;50.742;6.432;2022-07-01T12:01:50;1.70;;;0.60;;
50225;SDS011;36113;50.742;6.432;2022-07-01T12:04:19;3.88;;;0.70;;
50225;SDS011;36113;50.742;6.432;2022-07-01T12:06:45;1.27;;;1.17;;
50225;SDS011;36113;50.742;6.432;2022-07-01T12:11:44;0.95;;;0.40;;
50225;SDS011;36113;50.742;6.432;2022-07-01T12:14:27;0.80;;;0.50;;
50225;SDS011;36113;50.742;6.432;2022-07-01T12:16:55;0.68;;;0.57;;
50225;SDS011;36113;50.742;6.432;2022-07-01T12:19:42;0.47;;;0.45;;
50225;SDS011;36113;50.742;6.432;2022-07-01T12:22:12;1.40;;;0.57;;
50225;SDS011;36113;50.742;6.432;2022-07-01T12:24:48;0.97;;;0.63;;
50225;SDS011;36113;50.742;6.432;2022-07-01T12:27:14;0.50;;;0.50;;
50225;SDS011;36113;50.742;6.432;2022-07-01T12:32:05;1.47;;;0.60;;
50225;SDS011;36113;50.742;6.432;2022-07-01T12:34:39;0.40;;;0.40;;
50225;SDS011;36113;50.742;6.432;2022-07-01T12:37:31;0.30;;;0.30;;
50225;SDS011;36113;50.742;6.432;2022-07-01T12:42:37;0.63;;;0.63;;
50225;SDS011;36113;50.742;6.432;2022-07-01T12:45:17;0.43;;;0.43;;
50225;SDS011;36113;50.742;6.432;2022-07-01T12:47:49;1.10;;;0.68;;
50225;SDS011;36113;50.742;6.432;2022-07-01T12:50:26;2.70;;;0.55;;
50225;SDS011;36113;50.742;6.432;2022-07-01T12:52:58;2.05;;;0.43;;
50225;SDS011;36113;50.742;6.432;2022-07-01T12:55:24;4.70;;;0.70;;
50225;SDS011;36113;50.742;6.432;2022-07-01T12:57:50;2.80;;;0.67;;
50225;SDS011;36113;50.742;6.432;2022-07-01T13:00:19;1.05;;;0.45;;
50225;SDS011;36113;50.742;6.432;2022-07-01T13:02:46;1.55;;;0.82;;
50225;SDS011;36113;50.742;6.432;2022-07-01T13:05:12;0.50;;;0.50;;
50225;SDS011;36113;50.742;6.432;2022-07-01T13:07:38;0.60;;;0.40;;
50225;SDS011;36113;50.742;6.432;2022-07-01T13:10:04;0.40;;;0.40;;
50225;SDS011;36113;50.742;6.432;2022-07-01T13:12:29;3.67;;;0.70;;
50225;SDS011;36113;50.742;6.432;2022-07-01T13:14:55;2.63;;;0.63;;
50225;SDS011;36113;50.742;6.432;2022-07-01T13:17:22;0.45;;;0.45;;
50225;SDS011;36113;50.742;6.432;2022-07-01T13:19:51;1.02;;;0.50;;
50225;SDS011;36113;50.742;6.432;2022-07-01T13:22:16;1.17;;;0.60;;
50225;SDS011;36113;50.742;6.432;2022-07-01T13:24:42;0.97;;;0.47;;
50225;SDS011;36113;50.742;6.432;2022-07-01T13:27:07;2.77;;;0.50;;
50225;SDS011;36113;50.742;6.432;2022-07-01T13:29:33;1.70;;;0.50;;
50225;SDS011;36113;50.742;6.432;2022-07-01T13:31:58;3.47;;;0.60;;
50225;SDS011;36113;50.742;6.432;2022-07-01T13:34:24;0.23;;;0.23;;
50225;SDS011;36113;50.742;6.432;2022-07-01T13:36:49;1.33;;;0.50;;
50225;SDS011;36113;50.742;6.432;2022-07-01T13:39:15;0.30;;;0.30;;
50225;SDS011;36113;50.742;6.432;2022-07-01T13:41:40;0.30;;;0.30;;
50225;SDS011;36113;50.742;6.432;2022-07-01T13:44:06;1.97;;;0.50;;
50225;SDS011;36113;50.742;6.432;2022-07-01T13:46:31;1.60;;;0.37;;
50225;SDS011;36113;50.742;6.432;2022-07-01T13:48:57;0.40;;;0.40;;
50225;SDS011;36113;50.742;6.432;2022-07-01T13:51:22;1.50;;;0.40;;
50225;SDS011;36113;50.742;6.432;2022-07-01T13:53:48;0.60;;;0.57;;
50225;SDS011;36113;50.742;6.432;2022-07-01T13:56:13;0.50;;;0.33;;
50225;SDS011;36113;50.742;6.432;2022-07-01T13:58:39;0.70;;;0.70;;
50225;SDS011;36113;50.742;6.432;2022-07-01T14:01:04;0.50;;;0.40;;
50225;SDS011;36113;50.742;6.432;2022-07-01T14:03:29;1.23;;;0.70;;
50225;SDS011;36113;50.742;6.432;2022-07-01T14:05:55;0.70;;;0.30;;
50225;SDS011;36113;50.742;6.432;2022-07-01T14:08:20;0.37;;;0.37;;
50225;SDS011;36113;50.742;6.432;2022-07-01T14:10:45;1.90;;;0.60;;
50225;SDS011;36113;50.742;6.432;2022-07-01T14:13:11;0.47;;;0.37;;
50225;SDS011;36113;50.742;6.432;2022-07-01T14:15:37;0.43;;;0.43;;
50225;SDS011;36113;50.742;6.432;2022-07-01T14:18:02;1.50;;;0.23;;
50225;SDS011;36113;50.742;6.432;2022-07-01T14:20:28;3.05;;;0.35;;
50225;SDS011;36113;50.742;6.432;2022-07-01T14:22:54;0.38;;;0.30;;
50225;SDS011;36113;50.742;6.432;2022-07-01T14:25:20;0.40;;;0.40;;
50225;SDS011;36113;50.742;6.432;2022-07-01T14:27:46;1.13;;;0.50;;
50225;SDS011;36113;50.742;6.432;2022-07-01T14:30:11;0.40;;;0.40;;
50225;SDS011;36113;50.742;6.432;2022-07-01T14:32:37;0.40;;;0.40;;
50225;SDS011;36113;50.742;6.432;2022-07-01T14:35:03;4.30;;;0.60;;
50225;SDS011;36113;50.742;6.432;2022-07-01T14:37:30;0.50;;;0.47;;
50225;SDS011;36113;50.742;6.432;2022-07-01T14:39:55;0.33;;;0.33;;
50225;SDS011;36113;50.742;6.432;2022-07-01T14:42:22;0.38;;;0.38;;
50225;SDS011;36113;50.742;6.432;2022-07-01T14:44:48;1.08;;;0.50;;
50225;SDS011;36113;50.742;6.432;2022-07-01T14:47:15;1.98;;;0.45;;
50225;SDS011;36113;50.742;6.432;2022-07-01T14:49:40;2.00;;;0.60;;
50225;SDS011;36113;50.742;6.432;2022-07-01T14:52:07;1.35;;;0.43;;
50225;SDS011;36113;50.742;6.432;2022-07-01T14:54:32;1.23;;;0.50;;
50225;SDS011;36113;50.742;6.432;2022-07-01T14:56:57;0.50;;;0.50;;
50225;SDS011;36113;50.742;6.432;2022-07-01T14:59:23;1.77;;;0.50;;
50225;SDS011;36113;50.742;6.432;2022-07-01T15:01:48;0.60;;;0.40;;
50225;SDS011;36113;50.742;6.432;2022-07-01T15:04:13;0.43;;;0.37;;
50225;SDS011;36113;50.742;6.432;2022-07-01T15:06:39;0.50;;;0.37;;
50225;SDS011;36113;50.742;6.432;2022-07-01T15:09:04;0.40;;;0.40;;
50225;SDS011;36113;50.742;6.432;2022-07-01T15:11:29;0.30;;;0.30;;
50225;SDS011;36113;50.742;6.432;2022-07-01T15:13:55;0.57;;;0.40;;
50225;SDS011;36113;50.742;6.432;2022-07-01T15:16:20;0.60;;;0.50;;
50225;SDS011;36113;50.742;6.432;2022-07-01T15:18:45;0.83;;;0.40;;
50225;SDS011;36113;50.742;6.432;2022-07-01T15:21:11;0.47;;;0.23;;
50225;SDS011;36113;50.742;6.432;2022-07-01T15:23:36;1.47;;;0.60;;
50225;SDS011;36113;50.742;6.432;2022-07-01T15:26:02;0.53;;;0.40;;